Time;durP1;ratioP1;P1;durP2;ratioP2;P2;SDS_P1;SDS_P2;PMS_P1;PMS_P2;Temp;Humidity;BMP_temperature;BMP_pressure;BME280_temperature;BME280_humidity;BME280_pressure;Samples;Min_cycle;Max_cycle;Signal;HPM_P1;HPM_P2
2021/08/07 00:00:50;;;;;;;24.02;3.75;;;42.10;27.60;;;;;;5045471;28;20192;-68
2021/08/07 00:03:16;;;;;;;19.75;2.95;;;41.90;27.80;;;;;;5046895;28;20115;-65
2021/08/07 00:05:43;;;;;;;31.30;4.28;;;41.90;28.30;;;;;;5052653;28;20121;-67
2021/08/07 00:08:10;;;;;;;29.33;4.60;;;41.70;28.80;;;;;;5044511;28;20152;-67
2021/08/07 00:10:37;;;;;;;33.45;4.32;;;41.60;29.10;;;;;;5051299;28;20078;-68
2021/08/07 00:13:03;;;;;;;29.55;3.67;;;41.40;29.10;;;;;;5042740;28;20066;-67
2021/08/07 00:15:30;;;;;;;32.15;4.15;;;41.40;29.40;;;;;;5046140;28;20082;-68
2021/08/07 00:17:57;;;;;;;42.25;4.93;;;41.40;29.20;;;;;;5042342;28;20160;-67
2021/08/07 00:20:24;;;;;;;39.70;4.75;;;41.30;29.20;;;;;;5042535;28;20097;-66
2021/08/07 00:22:51;;;;;;;34.65;4.07;;;41.20;29.10;;;;;;5044674;28;20069;-67
2021/08/07 00:25:18;;;;;;;19.00;3.70;;;41.10;29.20;;;;;;5048649;28;20508;-68
2021/08/07 00:27:45;;;;;;;31.63;4.57;;;41.10;29.60;;;;;;5045447;28;20078;-67
2021/08/07 00:30:12;;;;;;;37.20;4.68;;;41.10;29.20;;;;;;5044021;28;20074;-68
2021/08/07 00:32:40;;;;;;;36.33;4.43;;;40.80;29.20;;;;;;5046188;28;20082;-70
2021/08/07 00:35:08;;;;;;;29.77;4.25;;;40.80;29.10;;;;;;5048433;28;20151;-67
2021/08/07 00:37:35;;;;;;;20.88;4.00;;;40.80;29.10;;;;;;5046396;28;20070;-67
2021/08/07 00:40:01;;;;;;;37.20;3.47;;;40.60;29.20;;;;;;5044357;28;20102;-67
2021/08/07 00:42:28;;;;;;;32.10;3.28;;;40.60;29.10;;;;;;5031816;28;20221;-66
2021/08/07 00:44:54;;;;;;;31.42;4.43;;;40.50;29.20;;;;;;5047685;28;20070;-67
2021/08/07 00:47:20;;;;;;;30.17;4.47;;;40.40;29.90;;;;;;5045515;28;20505;-67
2021/08/07 00:49:47;;;;;;;32.28;4.28;;;40.50;29.80;;;;;;5045645;28;20070;-68
2021/08/07 00:52:15;;;;;;;25.20;4.78;;;40.50;30.60;;;;;;5041718;28;20426;-66
2021/08/07 00:54:41;;;;;;;21.75;4.50;;;40.50;29.60;;;;;;5041997;28;20593;-67
2021/08/07 00:57:08;;;;;;;66.47;5.68;;;40.50;29.90;;;;;;5047699;28;20531;-67
2021/08/07 00:59:34;;;;;;;23.25;3.63;;;40.50;29.80;;;;;;5042532;28;20090;-67
2021/08/07 01:02:10;;;;;;;32.08;4.93;;;40.40;30.10;;;;;;5042106;28;20090;-69
2021/08/07 01:04:42;;;;;;;28.33;3.60;;;40.30;30.40;;;;;;5044217;28;20106;-68
2021/08/07 01:07:34;;;;;;;30.83;4.43;;;40.20;30.60;;;;;;5062373;28;20104;-69
2021/08/07 01:10:12;;;;;;;33.40;3.85;;;40.00;30.80;;;;;;5036411;28;20098;-70
2021/08/07 01:13:08;;;;;;;35.33;4.47;;;39.90;32.20;;;;;;5044126;28;20073;-67
2021/08/07 01:15:40;;;;;;;27.95;4.03;;;39.90;31.50;;;;;;5022906;28;20228;-67
2021/08/07 01:18:10;;;;;;;32.67;4.07;;;39.80;31.60;;;;;;5043463;28;20092;-68
2021/08/07 01:20:41;;;;;;;18.40;4.30;;;39.70;31.70;;;;;;5045480;28;20287;-68
2021/08/07 01:23:23;;;;;;;23.77;4.90;;;39.60;32.20;;;;;;5047971;28;20070;-69
2021/08/07 01:26:14;;;;;;;35.65;5.03;;;39.50;32.20;;;;;;5043408;28;20070;-69
2021/08/07 01:28:43;;;;;;;33.13;6.25;;;39.50;31.80;;;;;;5043249;28;20065;-69
2021/08/07 01:31:12;;;;;;;34.45;4.90;;;39.30;31.40;;;;;;5044648;28;20077;-69
2021/08/07 01:33:40;;;;;;;39.53;5.15;;;39.20;31.80;;;;;;5045524;28;20081;-70
2021/08/07 01:36:07;;;;;;;23.25;4.28;;;38.90;32.50;;;;;;5045382;28;20088;-71
2021/08/07 01:38:35;;;;;;;29.65;4.30;;;39.10;33.30;;;;;;5047811;28;20131;-70
2021/08/07 01:41:03;;;;;;;27.00;4.50;;;39.00;34.20;;;;;;5042691;28;20544;-70
2021/08/07 01:43:30;;;;;;;23.17;3.85;;;38.90;34.10;;;;;;5038109;28;20074;-68
2021/08/07 01:45:56;;;;;;;23.40;4.00;;;38.90;32.90;;;;;;5039029;28;20180;-69
2021/08/07 01:48:58;;;;;;;23.33;4.40;;;38.90;32.80;;;;;;5039396;28;20070;-69
2021/08/07 01:51:40;;;;;;;31.23;4.13;;;38.70;33.70;;;;;;5043548;28;20130;-68
2021/08/07 01:54:08;;;;;;;17.88;3.92;;;38.50;34.50;;;;;;5044399;28;20093;-66
2021/08/07 01:56:41;;;;;;;23.00;4.35;;;38.50;34.80;;;;;;5042123;28;20082;-69
2021/08/07 01:59:14;;;;;;;26.35;3.90;;;38.40;35.30;;;;;;5040955;28;20089;-67
2021/08/07 02:01:44;;;;;;;29.23;4.03;;;38.30;34.20;;;;;;5041987;28;20081;-66
2021/08/07 02:04:13;;;;;;;28.33;4.72;;;38.20;33.90;;;;;;5042079;28;20073;-68
2021/08/07 02:06:40;;;;;;;34.00;4.72;;;38.10;34.80;;;;;;5038460;28;20143;-68
2021/08/07 02:09:07;;;;;;;19.05;3.90;;;38.00;35.80;;;;;;5045774;28;20070;-67
2021/08/07 02:11:34;;;;;;;23.27;4.30;;;37.80;35.50;;;;;;5044096;28;20069;-66
2021/08/07 02:14:01;;;;;;;17.48;3.30;;;37.80;35.90;;;;;;5044058;28;20112;-66
2021/08/07 02:16:29;;;;;;;15.32;3.75;;;37.60;36.30;;;;;;5040786;28;20086;-67
2021/08/07 02:18:56;;;;;;;16.23;4.03;;;37.60;36.40;;;;;;5043420;28;20108;-65
2021/08/07 02:21:23;;;;;;;21.13;3.60;;;37.40;36.60;;;;;;5046238;28;20076;-66
2021/08/07 02:23:50;;;;;;;19.98;3.67;;;37.30;37.00;;;;;;5041204;28;20085;-66
2021/08/07 02:26:20;;;;;;;20.85;4.03;;;37.30;37.40;;;;;;5041932;28;20127;-66
2021/08/07 02:28:47;;;;;;;16.75;4.10;;;37.30;37.50;;;;;;5040731;28;20215;-66
2021/08/07 02:31:14;;;;;;;23.98;4.38;;;37.10;37.90;;;;;;5043436;28;20126;-66
2021/08/07 02:33:41;;;;;;;24.80;3.40;;;37.10;38.30;;;;;;5042594;28;20073;-67
2021/08/07 02:36:11;;;;;;;20.77;3.75;;;37.00;38.70;;;;;;5052861;28;20096;-65
2021/08/07 02:38:38;;;;;;;21.98;4.00;;;37.10;39.30;;;;;;5050829;28;20140;-65
2021/08/07 02:41:05;;;;;;;15.82;4.03;;;36.80;39.70;;;;;;5043634;28;20105;-66
2021/08/07 02:43:33;;;;;;;24.52;4.97;;;36.70;40.00;;;;;;5043892;28;20085;-65
2021/08/07 02:46:00;;;;;;;25.23;4.32;;;36.70;50.90;;;;;;5041882;28;20434;-67
2021/08/07 02:48:28;;;;;;;19.95;4.28;;;36.60;40.60;;;;;;5040066;28;20527;-68
2021/08/07 02:50:56;;;;;;;29.05;4.88;;;36.60;41.20;;;;;;5044428;28;20093;-69
2021/08/07 02:53:23;;;;;;;26.88;4.70;;;36.60;41.70;;;;;;5042640;28;20208;-67
2021/08/07 02:55:50;;;;;;;30.25;5.20;;;;;;;;;;5043039;28;20255;-70
2021/08/07 02:58:17;;;;;;;32.70;5.15;;;36.50;42.50;;;;;;5039700;28;20113;-66
2021/08/07 03:00:44;;;;;;;29.92;4.70;;;36.40;43.60;;;;;;5042574;28;20097;-66
2021/08/07 03:03:10;;;;;;;29.38;4.60;;;36.30;62.40;;;;;;5047271;28;20075;-68
2021/08/07 03:05:37;;;;;;;21.45;4.45;;;36.20;44.60;;;;;;5041737;28;20116;-66
2021/08/07 03:08:04;;;;;;;20.60;3.97;;;36.10;45.00;;;;;;5041581;28;20083;-65
2021/08/07 03:10:30;;;;;;;27.10;5.25;;;36.10;59.50;;;;;;5044183;28;20088;-63
2021/08/07 03:12:57;;;;;;;27.75;5.38;;;36.00;65.50;;;;;;5042904;28;20160;-66
2021/08/07 03:15:25;;;;;;;25.90;4.68;;;36.00;63.20;;;;;;5040361;28;20108;-66
2021/08/07 03:17:52;;;;;;;23.55;4.88;;;35.50;63.40;;;;;;5041452;28;20069;-67
2021/08/07 03:20:19;;;;;;;24.83;4.65;;;35.70;46.20;;;;;;5045274;28;20097;-66
2021/08/07 03:22:46;;;;;;;23.35;4.90;;;35.70;46.30;;;;;;5033926;28;20161;-66
2021/08/07 03:25:13;;;;;;;27.77;4.80;;;35.60;57.20;;;;;;5040368;28;20561;-66
2021/08/07 03:27:40;;;;;;;23.92;4.47;;;35.70;46.60;;;;;;5042585;28;20164;-66
2021/08/07 03:30:07;;;;;;;24.58;4.30;;;35.70;46.80;;;;;;5038764;28;20077;-65
2021/08/07 03:32:33;;;;;;;28.48;5.65;;;35.60;47.20;;;;;;5046568;28;20127;-66
2021/08/07 03:35:00;;;;;;;23.90;4.78;;;35.60;47.60;;;;;;5042746;28;20085;-65
2021/08/07 03:37:26;;;;;;;21.73;4.78;;;35.50;47.90;;;;;;5036930;28;20074;-66
2021/08/07 03:39:53;;;;;;;22.30;4.57;;;35.50;48.10;;;;;;5046425;28;20105;-65
2021/08/07 03:42:20;;;;;;;28.40;5.28;;;35.40;48.40;;;;;;5045272;28;20078;-64
2021/08/07 03:44:46;;;;;;;27.75;5.00;;;35.30;48.70;;;;;;5045451;28;20558;-65
2021/08/07 03:47:14;;;;;;;16.65;4.70;;;35.20;49.00;;;;;;5040480;28;20139;-65
2021/08/07 03:49:41;;;;;;;28.25;5.65;;;35.20;49.30;;;;;;5044325;28;20597;-65
2021/08/07 03:52:08;;;;;;;35.10;5.78;;;35.10;49.80;;;;;;5047519;28;20160;-67
2021/08/07 03:54:34;;;;;;;41.85;6.47;;;35.00;50.10;;;;;;5042304;28;20078;-66
2021/08/07 03:57:01;;;;;;;24.48;4.97;;;35.00;50.10;;;;;;5029284;28;20074;-66
2021/08/07 03:59:28;;;;;;;25.95;5.55;;;35.00;50.00;;;;;;5043030;28;20552;-67
2021/08/07 04:01:54;;;;;;;30.88;4.70;;;34.90;50.00;;;;;;5043946;28;20093;-67
2021/08/07 04:04:21;;;;;;;29.65;4.75;;;34.90;50.00;;;;;;5042146;28;20113;-66
2021/08/07 04:06:51;;;;;;;26.08;5.25;;;34.90;50.10;;;;;;5046784;28;20081;-66
2021/08/07 04:09:18;;;;;;;20.83;4.78;;;34.80;50.30;;;;;;5045346;28;20070;-66
2021/08/07 04:11:45;;;;;;;38.97;5.43;;;34.80;50.70;;;;;;5047061;28;20104;-65
2021/08/07 04:14:11;;;;;;;29.58;5.80;;;34.80;51.20;;;;;;5042507;28;20070;-66
2021/08/07 04:16:38;;;;;;;26.52;5.10;;;34.80;51.50;;;;;;5043811;28;20065;-65
2021/08/07 04:19:05;;;;;;;31.05;5.18;;;34.80;51.90;;;;;;5044482;28;20084;-65
2021/08/07 04:21:31;;;;;;;35.92;5.03;;;34.60;68.40;;;;;;5044693;28;20198;-66
2021/08/07 04:23:58;;;;;;;40.80;6.05;;;34.60;53.30;;;;;;5045581;28;20077;-66
2021/08/07 04:26:24;;;;;;;28.92;5.18;;;34.60;53.70;;;;;;5042335;28;20074;-67
2021/08/07 04:28:51;;;;;;;33.13;5.82;;;34.50;54.40;;;;;;5044716;28;20073;-67
2021/08/07 04:31:17;;;;;;;39.63;6.32;;;34.40;55.00;;;;;;5041550;28;20548;-67
2021/08/07 04:33:44;;;;;;;32.50;7.40;;;34.70;67.90;;;;;;5044892;28;20073;-65
2021/08/07 04:36:10;;;;;;;38.08;6.93;;;34.10;67.40;;;;;;5029622;28;20077;-66
2021/08/07 04:38:37;;;;;;;31.30;8.40;;;34.20;56.20;;;;;;5048186;28;20550;-67
2021/08/07 04:41:04;;;;;;;43.58;8.02;;;34.20;56.40;;;;;;5044982;28;20098;-67
2021/08/07 04:43:31;;;;;;;49.97;8.82;;;34.20;57.00;;;;;;5035927;28;20074;-67
2021/08/07 04:45:58;;;;;;;35.03;8.68;;;34.10;57.40;;;;;;5039023;28;20519;-69
2021/08/07 04:48:24;;;;;;;30.70;7.78;;;33.70;68.60;;;;;;5042719;28;20085;-68
2021/08/07 04:50:51;;;;;;;34.03;8.00;;;33.90;59.10;;;;;;5044229;28;20081;-67
2021/08/07 04:53:18;;;;;;;27.77;7.65;;;33.80;58.70;;;;;;5043971;28;20077;-67
2021/08/07 04:55:44;;;;;;;32.33;8.07;;;33.80;59.70;;;;;;5042692;28;20175;-66
2021/08/07 04:58:14;;;;;;;32.72;7.20;;;33.80;60.70;;;;;;5051083;28;20100;-65
2021/08/07 05:00:41;;;;;;;22.42;6.43;;;33.80;61.00;;;;;;5040303;28;20114;-65
2021/08/07 05:03:07;;;;;;;20.98;5.75;;;33.70;61.70;;;;;;5042180;28;20074;-68
2021/08/07 05:05:34;;;;;;;23.98;5.82;;;33.70;62.20;;;;;;5045485;28;20114;-66
2021/08/07 05:08:00;;;;;;;29.15;6.50;;;33.70;62.60;;;;;;5044983;28;20092;-66
2021/08/07 05:10:27;;;;;;;23.65;5.78;;;33.50;63.50;;;;;;5044499;28;20430;-68
2021/08/07 05:12:53;;;;;;;27.23;5.60;;;33.50;64.30;;;;;;5042222;28;20082;-66
2021/08/07 05:15:20;;;;;;;27.05;5.90;;;33.50;64.60;;;;;;5042752;28;20142;-67
2021/08/07 05:17:46;;;;;;;29.02;6.22;;;33.50;64.70;;;;;;5046063;28;20076;-66
2021/08/07 05:20:13;;;;;;;24.60;6.38;;;34.00;85.80;;;;;;5044194;28;20117;-66
2021/08/07 05:22:41;;;;;;;26.40;6.35;;;33.30;85.40;;;;;;5047377;28;21591;-66
2021/08/07 05:25:08;;;;;;;30.58;6.13;;;33.70;88.80;;;;;;5043083;28;20571;-66
2021/08/07 05:27:35;;;;;;;32.13;7.13;;;33.30;93.20;;;;;;5039395;28;21314;-66
2021/08/07 05:30:01;;;;;;;29.35;6.20;;;33.50;65.50;;;;;;5044924;28;20068;-67
2021/08/07 05:32:28;;;;;;;33.05;6.57;;;33.40;66.60;;;;;;5039811;28;20164;-66
2021/08/07 05:34:54;;;;;;;33.35;7.07;;;33.40;67.00;;;;;;5047380;28;20527;-67
2021/08/07 05:37:21;;;;;;;29.00;7.53;;;33.30;67.30;;;;;;5044257;28;20077;-67
2021/08/07 05:39:47;;;;;;;36.92;8.18;;;33.30;67.70;;;;;;5042826;28;20097;-66
2021/08/07 05:42:14;;;;;;;34.67;6.97;;;33.30;68.20;;;;;;5049080;28;20073;-65
2021/08/07 05:44:40;;;;;;;38.80;7.47;;;33.20;68.60;;;;;;5046761;28;20114;-66
2021/08/07 05:47:07;;;;;;;28.20;6.97;;;33.20;69.40;;;;;;5040577;28;20579;-65
2021/08/07 05:49:33;;;;;;;42.05;8.25;;;33.20;69.70;;;;;;5042319;28;20068;-66
2021/08/07 05:51:59;;;;;;;29.45;7.53;;;33.20;70.00;;;;;;5042755;28;20104;-65
2021/08/07 05:54:26;;;;;;;37.50;6.90;;;33.20;70.20;;;;;;5045378;28;20178;-66
2021/08/07 05:56:52;;;;;;;31.25;8.30;;;33.20;70.50;;;;;;5044877;28;20078;-64
2021/08/07 05:59:19;;;;;;;31.13;6.90;;;33.10;71.20;;;;;;5044787;28;20118;-66
2021/08/07 06:01:45;;;;;;;33.13;7.00;;;33.10;71.50;;;;;;5044591;28;20592;-65
2021/08/07 06:04:12;;;;;;;26.60;5.93;;;33.10;71.70;;;;;;5041321;28;20153;-66
2021/08/07 06:06:38;;;;;;;25.92;5.90;;;33.10;72.20;;;;;;5041713;28;20085;-67
2021/08/07 06:09:05;;;;;;;30.25;6.20;;;33.00;73.10;;;;;;5045129;28;20078;-66
2021/08/07 06:11:32;;;;;;;28.17;5.15;;;33.00;73.70;;;;;;5042403;28;20185;-66
2021/08/07 06:13:59;;;;;;;28.00;5.50;;;32.90;74.40;;;;;;5040281;28;20065;-66
2021/08/07 06:16:25;;;;;;;30.17;5.95;;;32.80;75.20;;;;;;5047277;28;20078;-64
2021/08/07 06:18:52;;;;;;;23.38;5.50;;;32.90;75.50;;;;;;5042043;28;20065;-66
2021/08/07 06:21:18;;;;;;;27.98;6.28;;;32.80;76.00;;;;;;5040381;28;20201;-66
2021/08/07 06:23:45;;;;;;;21.95;5.65;;;32.70;77.00;;;;;;5041278;28;20082;-66
2021/08/07 06:26:11;;;;;;;25.00;6.50;;;32.70;77.70;;;;;;5038998;28;20420;-65
2021/08/07 06:28:39;;;;;;;27.10;5.93;;;32.70;77.70;;;;;;5037812;28;20080;-66
2021/08/07 06:31:06;;;;;;;21.50;5.15;;;32.50;88.40;;;;;;5041879;28;20143;-66
2021/08/07 06:33:33;;;;;;;26.58;5.60;;;32.60;78.70;;;;;;5044883;28;20111;-65
2021/08/07 06:36:01;;;;;;;28.30;5.90;;;32.30;90.10;;;;;;5038672;28;20489;-65
2021/08/07 06:38:28;;;;;;;26.20;5.85;;;32.60;79.40;;;;;;5043893;28;20074;-66
2021/08/07 06:40:55;;;;;;;23.70;5.40;;;32.60;80.20;;;;;;5045428;28;20109;-67
2021/08/07 06:43:21;;;;;;;28.48;5.80;;;32.60;79.60;;;;;;5040103;28;20160;-66
2021/08/07 06:45:48;;;;;;;24.75;5.60;;;32.60;80.30;;;;;;5039770;28;20074;-67
2021/08/07 06:48:15;;;;;;;27.20;5.63;;;32.60;80.50;;;;;;5042838;28;20082;-66
2021/08/07 06:50:41;;;;;;;20.63;5.30;;;32.50;81.40;;;;;;5041430;28;20090;-67
2021/08/07 06:53:08;;;;;;;27.17;5.50;;;32.50;81.40;;;;;;5047909;28;20105;-65
2021/08/07 06:55:34;;;;;;;27.08;6.25;;;32.40;81.90;;;;;;5050401;28;20077;-66
2021/08/07 06:58:01;;;;;;;26.75;5.75;;;32.40;82.20;;;;;;5047599;28;20084;-65
2021/08/07 07:00:27;;;;;;;25.70;5.65;;;32.40;82.80;;;;;;5051310;28;20090;-66
2021/08/07 07:02:54;;;;;;;25.90;6.32;;;32.40;83.40;;;;;;5046711;28;20152;-67
2021/08/07 07:05:21;;;;;;;27.55;6.45;;;32.40;83.80;;;;;;5042328;28;20494;-66
2021/08/07 07:07:47;;;;;;;30.25;5.90;;;32.30;84.20;;;;;;5040664;28;20102;-66
2021/08/07 07:10:15;;;;;;;24.00;4.90;;;32.30;84.60;;;;;;5043251;28;20107;-66
2021/08/07 07:12:42;;;;;;;21.48;5.30;;;32.00;92.10;;;;;;5040239;28;20078;-66
2021/08/07 07:15:09;;;;;;;28.00;5.53;;;32.40;85.20;;;;;;5044350;28;20199;-66
2021/08/07 07:17:36;;;;;;;23.73;5.70;;;32.30;85.40;;;;;;5042225;28;20085;-65
2021/08/07 07:20:04;;;;;;;31.15;6.43;;;32.30;85.80;;;;;;5040730;28;20680;-66
2021/08/07 07:22:31;;;;;;;28.98;5.85;;;32.30;86.60;;;;;;5042860;28;20084;-65
2021/08/07 07:24:58;;;;;;;30.67;6.30;;;32.30;86.50;;;;;;5044458;28;20081;-65
2021/08/07 07:27:24;;;;;;;28.65;5.60;;;32.20;86.90;;;;;;5046709;28;20074;-66
2021/08/07 07:29:51;;;;;;;28.00;6.55;;;32.30;87.20;;;;;;5046830;28;20082;-66
2021/08/07 07:32:17;;;;;;;26.88;5.22;;;32.20;87.50;;;;;;5042231;28;20135;-67
2021/08/07 07:34:44;;;;;;;23.65;6.80;;;32.20;88.20;;;;;;5046270;28;20078;-66
2021/08/07 07:37:10;;;;;;;22.98;5.22;;;32.20;88.20;;;;;;5046062;28;20077;-67
2021/08/07 07:39:37;;;;;;;24.88;6.18;;;32.10;96.90;;;;;;5048129;28;20098;-65
2021/08/07 07:42:04;;;;;;;26.42;5.70;;;32.00;94.90;;;;;;5042765;28;20153;-66
2021/08/07 07:44:30;;;;;;;25.17;5.45;;;32.20;89.40;;;;;;5045460;28;20088;-65
2021/08/07 07:47:00;;;;;;;25.70;5.72;;;32.20;89.40;;;;;;5045367;28;20527;-66
2021/08/07 07:49:34;;;;;;;30.38;6.25;;;32.40;96.00;;;;;;5046700;28;20085;-66
2021/08/07 07:52:01;;;;;;;25.75;5.55;;;32.20;89.30;;;;;;5031139;28;20082;-66
2021/08/07 07:54:27;;;;;;;36.42;6.38;;;32.60;95.50;;;;;;5045556;28;20473;-66
2021/08/07 07:56:54;;;;;;;30.00;5.95;;;32.10;90.30;;;;;;5045960;28;20077;-65
2021/08/07 07:59:21;;;;;;;28.02;5.82;;;32.10;90.40;;;;;;5047269;28;20105;-65
2021/08/07 08:01:49;;;;;;;28.73;5.30;;;32.10;90.80;;;;;;5045556;28;20153;-66
2021/08/07 08:04:15;;;;;;;30.02;6.22;;;32.00;91.10;;;;;;5047833;28;20657;-67
2021/08/07 08:06:43;;;;;;;25.25;6.13;;;31.90;91.30;;;;;;5045923;28;20109;-65
2021/08/07 08:09:10;;;;;;;26.52;5.68;;;31.90;91.40;;;;;;5045808;28;20462;-67
2021/08/07 08:11:37;;;;;;;22.02;5.20;;;32.00;91.40;;;;;;5047363;28;20154;-65
2021/08/07 08:14:03;;;;;;;25.85;5.20;;;32.10;91.40;;;;;;5046840;28;20070;-67
2021/08/07 08:16:31;;;;;;;22.95;5.38;;;32.00;91.60;;;;;;5045647;28;20081;-65
2021/08/07 08:18:58;;;;;;;28.02;5.50;;;31.90;92.30;;;;;;5047093;28;20529;-65
2021/08/07 08:21:24;;;;;;;23.45;5.40;;;31.80;92.80;;;;;;5045758;28;20081;-66
2021/08/07 08:24:03;;;;;;;32.45;6.63;;;32.20;96.30;;;;;;5043317;28;20078;-64
2021/08/07 08:26:30;;;;;;;28.20;5.80;;;31.80;92.90;;;;;;5043650;28;20076;-66
2021/08/07 08:28:56;;;;;;;27.55;6.15;;;31.90;92.90;;;;;;5045295;28;20085;-66
2021/08/07 08:31:26;;;;;;;31.30;5.88;;;32.50;99.90;;;;;;5047580;28;20077;-64
2021/08/07 08:33:52;;;;;;;28.85;5.95;;;32.20;99.90;;;;;;5045169;28;20078;-65
2021/08/07 08:36:19;;;;;;;27.95;6.03;;;31.80;99.90;;;;;;5046234;28;21641;-65
2021/08/07 08:38:46;;;;;;;32.50;6.60;;;32.20;99.90;;;;;;5046593;28;20164;-66
2021/08/07 08:41:12;;;;;;;26.55;6.90;;;31.80;93.90;;;;;;5044623;28;20129;-65
2021/08/07 08:43:40;;;;;;;29.25;6.75;;;31.70;94.10;;;;;;5045173;28;20581;-65
2021/08/07 08:46:07;;;;;;;19.70;5.60;;;31.50;99.90;;;;;;5041091;28;20086;-66
2021/08/07 08:48:35;;;;;;;28.88;6.07;;;31.40;99.90;;;;;;5046976;28;20530;-65
2021/08/07 08:51:05;;;;;;;28.52;6.22;;;31.80;99.90;;;;;;5044709;28;20104;-65
2021/08/07 08:53:32;;;;;;;27.05;5.80;;;32.80;99.90;;;;;;5041498;28;20073;-64
2021/08/07 08:56:01;;;;;;;25.67;5.90;;;31.30;99.90;;;;;;5044576;28;20104;-65
2021/08/07 08:58:27;;;;;;;30.55;6.45;;;31.60;94.40;;;;;;5041416;28;20161;-65
2021/08/07 09:00:54;;;;;;;24.42;5.55;;;31.60;94.70;;;;;;5045941;28;20104;-67
2021/08/07 09:03:20;;;;;;;22.92;5.50;;;31.60;95.00;;;;;;5041329;28;20112;-65
2021/08/07 09:05:47;;;;;;;24.60;5.82;;;31.80;99.90;;;;;;5040063;28;20117;-66
2021/08/07 09:08:16;;;;;;;31.90;5.90;;;31.20;99.90;;;;;;5041718;28;20069;-65
2021/08/07 09:10:43;;;;;;;35.20;7.00;;;31.10;99.90;;;;;;5044626;28;20123;-65
2021/08/07 09:13:22;;;;;;;27.15;6.70;;;31.50;94.10;;;;;;5039725;28;20082;-65
2021/08/07 09:15:48;;;;;;;25.42;5.55;;;31.40;93.50;;;;;;5040748;28;20081;-66
2021/08/07 09:18:18;;;;;;;21.10;5.28;;;31.30;94.00;;;;;;5042510;28;20073;-65
2021/08/07 09:20:47;;;;;;;23.58;5.00;;;30.90;99.90;;;;;;5039595;28;20098;-66
2021/08/07 09:23:15;;;;;;;24.33;5.65;;;31.30;99.90;;;;;;5045850;28;20559;-66
2021/08/07 09:25:45;;;;;;;19.23;5.15;;;30.90;99.90;;;;;;5045845;28;20078;-66
2021/08/07 09:28:12;;;;;;;24.42;5.32;;;31.20;93.60;;;;;;5044987;28;20119;-66
2021/08/07 09:30:44;;;;;;;25.60;5.88;;;31.00;99.90;;;;;;5040911;28;20424;-66
2021/08/07 09:33:20;;;;;;;30.25;6.53;;;31.00;93.20;;;;;;5040382;28;20485;-66
2021/08/07 09:35:48;;;;;;;28.20;6.55;;;31.00;93.30;;;;;;5045993;28;20092;-66
2021/08/07 09:38:19;;;;;;;24.92;6.00;;;31.00;93.70;;;;;;5044337;28;20065;-66
2021/08/07 09:40:53;;;;;;;25.05;6.05;;;30.90;99.90;;;;;;5043421;28;20089;-65
2021/08/07 09:43:31;;;;;;;27.67;6.47;;;30.90;93.60;;;;;;5040525;28;20073;-65
2021/08/07 09:46:06;;;;;;;25.42;6.68;;;30.70;99.90;;;;;;5041559;28;21407;-66
2021/08/07 09:48:35;;;;;;;22.85;5.95;;;31.20;99.90;;;;;;5040663;28;20036;-66
2021/08/07 09:51:26;;;;;;;27.23;5.88;;;31.20;99.90;;;;;;5047622;28;20081;-65
2021/08/07 09:54:22;;;;;;;19.55;5.75;;;30.40;99.90;;;;;;5036914;28;20131;-65
2021/08/07 09:56:53;;;;;;;25.88;5.93;;;30.60;99.90;;;;;;5034406;28;20078;-66
2021/08/07 09:59:22;;;;;;;30.35;6.25;;;30.70;99.90;;;;;;5042434;28;20021;-65
2021/08/07 10:01:51;;;;;;;23.05;5.25;;;30.80;94.10;;;;;;5039212;28;20528;-65
2021/08/07 10:04:20;;;;;;;23.95;6.32;;;30.80;94.20;;;;;;5042005;28;20456;-65
2021/08/07 10:06:48;;;;;;;32.83;7.53;;;30.80;94.30;;;;;;5041781;28;20092;-66
2021/08/07 10:09:29;;;;;;;28.00;6.28;;;30.80;94.30;;;;;;5042408;28;20073;-66
2021/08/07 10:12:08;;;;;;;28.02;6.65;;;31.00;99.90;;;;;;5043453;28;20077;-65
2021/08/07 10:14:36;;;;;;;35.50;6.60;;;30.40;99.90;;;;;;5046267;28;20062;-66
2021/08/07 10:17:05;;;;;;;29.98;6.20;;;30.70;94.60;;;;;;5038440;28;20081;-65
2021/08/07 10:19:32;;;;;;;25.27;6.38;;;30.80;94.40;;;;;;5041261;28;20486;-65
2021/08/07 10:21:59;;;;;;;27.05;6.30;;;30.80;94.30;;;;;;5041543;28;20093;-65
2021/08/07 10:24:28;;;;;;;29.45;5.93;;;30.80;94.30;;;;;;5044406;28;20085;-65
2021/08/07 10:26:58;;;;;;;33.42;6.95;;;30.80;94.70;;;;;;5038652;28;20082;-65
2021/08/07 10:29:29;;;;;;;27.65;6.75;;;30.80;99.90;;;;;;5043533;28;20109;-65
2021/08/07 10:31:57;;;;;;;25.48;5.78;;;30.70;98.10;;;;;;5039295;28;20044;-65
2021/08/07 10:34:24;;;;;;;21.42;5.75;;;30.70;95.10;;;;;;5039620;28;20174;-65
2021/08/07 10:36:51;;;;;;;30.65;6.75;;;30.50;99.90;;;;;;5043219;28;20073;-65
2021/08/07 10:39:17;;;;;;;27.88;6.20;;;30.50;95.70;;;;;;5039959;28;20088;-66
2021/08/07 10:41:44;;;;;;;23.48;6.15;;;30.50;95.90;;;;;;5040494;28;20084;-65
2021/08/07 10:44:12;;;;;;;22.73;5.82;;;30.50;96.00;;;;;;5040771;28;20104;-65
2021/08/07 10:46:40;;;;;;;30.35;6.38;;;30.50;96.10;;;;;;5042413;28;20090;-65
2021/08/07 10:49:08;;;;;;;30.35;5.85;;;30.50;95.90;;;;;;5040334;28;20074;-65
2021/08/07 10:51:37;;;;;;;25.65;6.50;;;30.50;95.60;;;;;;5043882;28;20070;-66
2021/08/07 10:54:17;;;;;;;28.67;5.78;;;30.50;95.30;;;;;;5043755;28;20066;-66
2021/08/07 10:56:44;;;;;;;20.17;5.80;;;30.50;95.20;;;;;;5041888;28;20526;-65
2021/08/07 10:59:11;;;;;;;27.42;6.45;;;30.60;94.90;;;;;;5041894;28;20527;-66
2021/08/07 11:01:39;;;;;;;26.83;5.97;;;30.60;94.80;;;;;;5042621;28;20576;-64
2021/08/07 11:04:19;;;;;;;28.13;6.38;;;30.60;94.30;;;;;;5040277;28;20519;-66
2021/08/07 11:06:49;;;;;;;22.95;7.00;;;30.50;94.40;;;;;;5038852;28;20097;-65
2021/08/07 11:09:31;;;;;;;27.88;6.75;;;30.50;94.80;;;;;;5045957;28;20092;-66
2021/08/07 11:12:06;;;;;;;27.35;7.63;;;30.40;94.80;;;;;;5043103;28;20077;-66
2021/08/07 11:14:49;;;;;;;24.17;6.43;;;30.40;95.30;;;;;;5043421;28;20074;-65
2021/08/07 11:17:16;;;;;;;28.52;7.82;;;30.40;94.90;;;;;;5045990;28;20360;-65
2021/08/07 11:19:48;;;;;;;29.20;8.65;;;30.30;95.10;;;;;;5044939;28;20097;-65
2021/08/07 11:22:15;;;;;;;28.52;8.23;;;30.20;95.20;;;;;;5041757;28;20086;-65
2021/08/07 11:24:48;;;;;;;33.53;8.32;;;30.20;95.20;;;;;;5042022;28;20086;-66
2021/08/07 11:27:18;;;;;;;29.48;8.15;;;30.30;94.90;;;;;;5044503;28;20073;-66
2021/08/07 11:30:16;;;;;;;29.75;8.63;;;30.40;96.10;;;;;;5039017;28;20407;-67
2021/08/07 11:33:09;;;;;;;29.50;8.45;;;30.20;94.80;;;;;;5042262;28;20077;-65
2021/08/07 11:35:38;;;;;;;35.75;7.63;;;30.20;94.70;;;;;;5036054;28;20165;-65
2021/08/07 11:38:09;;;;;;;25.95;6.55;;;30.30;94.80;;;;;;5038875;28;20439;-66
2021/08/07 11:40:50;;;;;;;30.33;7.20;;;30.20;99.80;;;;;;5040167;28;20120;-66
2021/08/07 11:43:39;;;;;;;31.98;7.18;;;30.10;95.90;;;;;;5041258;28;20430;-65
2021/08/07 11:46:11;;;;;;;28.73;6.88;;;30.10;95.40;;;;;;5043147;28;20459;-66
2021/08/07 11:48:39;;;;;;;25.50;7.25;;;30.10;95.60;;;;;;5043955;28;20131;-66
2021/08/07 11:51:14;;;;;;;25.30;7.88;;;30.10;95.60;;;;;;5042884;28;20141;-65
2021/08/07 11:53:43;;;;;;;31.75;8.73;;;30.60;99.90;;;;;;5040573;28;20554;-66
2021/08/07 11:56:15;;;;;;;34.80;9.88;;;30.10;95.30;;;;;;5044330;28;20482;-66
2021/08/07 11:58:53;;;;;;;32.22;8.88;;;29.80;99.90;;;;;;5042847;28;20074;-66
2021/08/07 12:01:21;;;;;;;32.47;10.60;;;30.10;94.80;;;;;;5039530;28;20111;-65
2021/08/07 12:03:53;;;;;;;31.00;9.27;;;30.00;95.00;;;;;;5041538;28;20066;-65
2021/08/07 12:06:26;;;;;;;32.83;9.48;;;30.10;99.90;;;;;;5043205;28;20121;-66
2021/08/07 12:08:52;;;;;;;30.52;9.75;;;29.90;99.90;;;;;;5046137;28;20066;-66
2021/08/07 12:11:20;;;;;;;33.88;10.30;;;29.90;95.00;;;;;;5047281;28;20070;-66
2021/08/07 12:13:46;;;;;;;39.38;9.38;;;30.20;99.90;;;;;;5051391;28;20078;-65
2021/08/07 12:16:15;;;;;;;32.75;8.50;;;29.90;95.00;;;;;;5050116;28;20078;-66
2021/08/07 12:18:50;;;;;;;29.60;8.25;;;29.90;95.70;;;;;;5048236;28;20604;-66
2021/08/07 12:21:22;;;;;;;31.00;8.27;;;29.90;95.90;;;;;;5043183;28;20108;-65
2021/08/07 12:23:53;;;;;;;37.33;8.95;;;30.20;99.90;;;;;;5047355;28;20465;-65
2021/08/07 12:26:21;;;;;;;28.20;8.13;;;29.80;96.80;;;;;;5049546;28;20078;-66
2021/08/07 12:29:03;;;;;;;28.05;7.75;;;30.20;99.90;;;;;;5042071;28;20074;-66
2021/08/07 12:31:46;;;;;;;29.80;8.20;;;29.80;97.10;;;;;;5043258;28;20077;-66
2021/08/07 12:34:16;;;;;;;35.20;9.25;;;29.80;97.10;;;;;;5043358;28;20105;-67
2021/08/07 12:36:55;;;;;;;36.88;9.85;;;29.80;97.00;;;;;;5041438;28;20455;-66
2021/08/07 12:39:22;;;;;;;30.63;8.88;;;29.70;96.80;;;;;;5046680;28;20082;-66
2021/08/07 12:41:49;;;;;;;29.55;8.65;;;29.30;99.90;;;;;;5046079;28;20633;-65
2021/08/07 12:44:28;;;;;;;35.15;9.63;;;29.70;99.90;;;;;;5046398;28;20176;-65
2021/08/07 12:46:56;;;;;;;32.08;9.48;;;29.70;97.10;;;;;;5043955;28;20073;-66